sensor_id;sensor_type;location;lat;lon;timestamp;pressure;altitude;pressure_sealevel;temperature;humidity
47742;BME280;33504;52.066;6.096;2023-09-12T00:01:28;101194.62;;;23.87;49.85
47742;BME280;33504;52.066;6.096;2023-09-12T00:03:56;101200.45;;;23.91;50.12
47742;BME280;33504;52.066;6.096;2023-09-12T00:06:22;101217.68;;;23.92;49.92
47742;BME280;33504;52.066;6.096;2023-09-12T00:08:51;101225.25;;;23.86;50.05
47742;BME280;33504;52.066;6.096;2023-09-12T00:11:18;101217.43;;;23.78;49.61
47742;BME280;33504;52.066;6.096;2023-09-12T00:13:45;101198.91;;;23.68;49.82
47742;BME280;33504;52.066;6.096;2023-09-12T00:16:13;101202.95;;;23.72;50.07
47742;BME280;33504;52.066;6.096;2023-09-12T00:18:40;101193.27;;;23.47;50.06
47742;BME280;33504;52.066;6.096;2023-09-12T00:21:07;101185.28;;;23.75;50.02
47742;BME280;33504;52.066;6.096;2023-09-12T00:23:34;101185.57;;;23.75;49.97
47742;BME280;33504;52.066;6.096;2023-09-12T00:26:00;101189.78;;;23.76;50.11
47742;BME280;33504;52.066;6.096;2023-09-12T00:28:28;101195.37;;;23.78;50.13
47742;BME280;33504;52.066;6.096;2023-09-12T00:30:55;101193.92;;;23.80;50.10
47742;BME280;33504;52.066;6.096;2023-09-12T00:33:22;101199.15;;;23.80;50.14
47742;BME280;33504;52.066;6.096;2023-09-12T00:35:49;101206.70;;;23.53;50.17
47742;BME280;33504;52.066;6.096;2023-09-12T00:38:17;101210.70;;;23.50;50.10
47742;BME280;33504;52.066;6.096;2023-09-12T00:40:44;101217.04;;;23.78;50.11
47742;BME280;33504;52.066;6.096;2023-09-12T00:43:11;101228.28;;;23.64;50.21
47742;BME280;33504;52.066;6.096;2023-09-12T00:45:38;101238.68;;;23.23;51.15
47742;BME280;33504;52.066;6.096;2023-09-12T00:48:06;101243.62;;;22.96;51.30
47742;BME280;33504;52.066;6.096;2023-09-12T00:50:34;101236.92;;;23.33;51.09
47742;BME280;33504;52.066;6.096;2023-09-12T00:53:03;101242.70;;;23.19;51.71
47742;BME280;33504;52.066;6.096;2023-09-12T00:55:32;101254.64;;;22.99;51.94
47742;BME280;33504;52.066;6.096;2023-09-12T00:58:01;101265.85;;;22.68;52.65
47742;BME280;33504;52.066;6.096;2023-09-12T01:00:28;101270.73;;;22.38;53.28
47742;BME280;33504;52.066;6.096;2023-09-12T01:02:56;101254.90;;;22.60;53.19
47742;BME280;33504;52.066;6.096;2023-09-12T01:05:23;101236.58;;;22.49;53.01
47742;BME280;33504;52.066;6.096;2023-09-12T01:07:51;101218.34;;;22.82;52.63
47742;BME280;33504;52.066;6.096;2023-09-12T01:10:18;101210.92;;;22.59;52.44
47742;BME280;33504;52.066;6.096;2023-09-12T01:12:45;101200.39;;;23.00;52.30
47742;BME280;33504;52.066;6.096;2023-09-12T01:15:12;101194.60;;;23.15;52.08
47742;BME280;33504;52.066;6.096;2023-09-12T01:17:40;101197.63;;;23.05;51.67
47742;BME280;33504;52.066;6.096;2023-09-12T01:20:11;101195.56;;;23.19;51.57
47742;BME280;33504;52.066;6.096;2023-09-12T01:22:52;101191.36;;;23.29;51.11
47742;BME280;33504;52.066;6.096;2023-09-12T01:25:39;101194.91;;;23.29;50.86
47742;BME280;33504;52.066;6.096;2023-09-12T01:28:10;101199.42;;;23.47;50.92
47742;BME280;33504;52.066;6.096;2023-09-12T01:30:39;101201.42;;;23.28;50.79
47742;BME280;33504;52.066;6.096;2023-09-12T01:33:09;101201.92;;;23.26;50.92
47742;BME280;33504;52.066;6.096;2023-09-12T01:35:36;101198.25;;;23.26;50.73
47742;BME280;33504;52.066;6.096;2023-09-12T01:38:04;101195.21;;;22.96;50.49
47742;BME280;33504;52.066;6.096;2023-09-12T01:40:35;101193.29;;;23.63;50.60
47742;BME280;33504;52.066;6.096;2023-09-12T01:43:06;101190.04;;;23.17;50.46
47742;BME280;33504;52.066;6.096;2023-09-12T01:45:35;101187.20;;;23.14;50.49
47742;BME280;33504;52.066;6.096;2023-09-12T01:48:04;101189.54;;;23.14;50.63
47742;BME280;33504;52.066;6.096;2023-09-12T01:50:33;101192.09;;;23.34;50.68
47742;BME280;33504;52.066;6.096;2023-09-12T01:53:00;101192.74;;;23.33;50.68
47742;BME280;33504;52.066;6.096;2023-09-12T01:55:28;101192.04;;;23.11;50.48
47742;BME280;33504;52.066;6.096;2023-09-12T01:57:55;101190.69;;;23.06;50.40
47742;BME280;33504;52.066;6.096;2023-09-12T02:00:23;101184.57;;;23.01;50.20
47742;BME280;33504;52.066;6.096;2023-09-12T02:02:51;101179.94;;;22.96;50.33
47742;BME280;33504;52.066;6.096;2023-09-12T02:05:20;101181.40;;;22.90;50.32
47742;BME280;33504;52.066;6.096;2023-09-12T02:07:48;101180.79;;;22.87;50.54
47742;BME280;33504;52.066;6.096;2023-09-12T02:10:15;101184.69;;;23.07;50.60
47742;BME280;33504;52.066;6.096;2023-09-12T02:12:43;101186.76;;;23.04;50.57
47742;BME280;33504;52.066;6.096;2023-09-12T02:15:10;101182.94;;;22.78;50.38
47742;BME280;33504;52.066;6.096;2023-09-12T02:17:37;101181.48;;;22.75;50.24
47742;BME280;33504;52.066;6.096;2023-09-12T02:20:05;101179.77;;;22.69;50.15
47742;BME280;33504;52.066;6.096;2023-09-12T02:22:32;101178.24;;;23.09;50.23
47742;BME280;33504;52.066;6.096;2023-09-12T02:24:59;101177.57;;;22.61;50.22
47742;BME280;33504;52.066;6.096;2023-09-12T02:27:26;101175.19;;;23.01;50.12
47742;BME280;33504;52.066;6.096;2023-09-12T02:29:54;101178.86;;;22.74;50.06
47742;BME280;33504;52.066;6.096;2023-09-12T02:32:21;101180.09;;;22.67;50.10
47742;BME280;33504;52.066;6.096;2023-09-12T02:34:48;101180.95;;;22.63;50.20
47742;BME280;33504;52.066;6.096;2023-09-12T02:37:15;101179.30;;;22.34;50.27
47742;BME280;33504;52.066;6.096;2023-09-12T02:39:42;101179.37;;;22.72;50.39
47742;BME280;33504;52.066;6.096;2023-09-12T02:42:09;101181.51;;;22.45;50.22
47742;BME280;33504;52.066;6.096;2023-09-12T02:44:35;101182.24;;;22.37;50.08
47742;BME280;33504;52.066;6.096;2023-09-12T02:47:03;101188.06;;;22.53;50.26
47742;BME280;33504;52.066;6.096;2023-09-12T02:49:30;101197.48;;;22.48;50.40
47742;BME280;33504;52.066;6.096;2023-09-12T02:51:57;101200.56;;;22.47;50.34
47742;BME280;33504;52.066;6.096;2023-09-12T02:54:24;101202.91;;;22.45;50.37
47742;BME280;33504;52.066;6.096;2023-09-12T02:56:51;101208.53;;;22.42;50.56
47742;BME280;33504;52.066;6.096;2023-09-12T02:59:18;101213.43;;;22.57;50.42
47742;BME280;33504;52.066;6.096;2023-09-12T03:01:45;101216.86;;;22.26;50.78
47742;BME280;33504;52.066;6.096;2023-09-12T03:04:12;101221.69;;;22.28;50.90
47742;BME280;33504;52.066;6.096;2023-09-12T03:06:39;101219.48;;;22.30;50.67
47742;BME280;33504;52.066;6.096;2023-09-12T03:09:05;101220.66;;;22.58;50.87
47742;BME280;33504;52.066;6.096;2023-09-12T03:11:33;101215.13;;;22.33;50.75
47742;BME280;33504;52.066;6.096;2023-09-12T03:14:00;101211.63;;;22.31;50.71
47742;BME280;33504;52.066;6.096;2023-09-12T03:16:27;101212.49;;;22.24;50.56
47742;BME280;33504;52.066;6.096;2023-09-12T03:18:54;101214.70;;;22.24;50.69
47742;BME280;33504;52.066;6.096;2023-09-12T03:21:21;101214.71;;;22.22;50.89
47742;BME280;33504;52.066;6.096;2023-09-12T03:23:48;101216.59;;;22.18;50.85
47742;BME280;33504;52.066;6.096;2023-09-12T03:26:15;101212.18;;;22.18;50.93
47742;BME280;33504;52.066;6.096;2023-09-12T03:28:42;101206.37;;;22.19;51.20
47742;BME280;33504;52.066;6.096;2023-09-12T03:31:11;101209.47;;;22.23;51.16
47742;BME280;33504;52.066;6.096;2023-09-12T03:33:39;101209.49;;;22.26;51.58
47742;BME280;33504;52.066;6.096;2023-09-12T03:36:07;101203.78;;;22.32;51.39
47742;BME280;33504;52.066;6.096;2023-09-12T03:38:35;101199.85;;;22.35;51.48
47742;BME280;33504;52.066;6.096;2023-09-12T03:41:02;101194.94;;;22.41;51.56
47742;BME280;33504;52.066;6.096;2023-09-12T03:43:30;101191.69;;;22.40;51.63
47742;BME280;33504;52.066;6.096;2023-09-12T03:45:57;101188.79;;;22.40;51.72
47742;BME280;33504;52.066;6.096;2023-09-12T03:48:24;101187.51;;;22.22;51.56
47742;BME280;33504;52.066;6.096;2023-09-12T03:50:50;101185.26;;;22.43;51.55
47742;BME280;33504;52.066;6.096;2023-09-12T03:53:18;101180.35;;;22.41;51.60
47742;BME280;33504;52.066;6.096;2023-09-12T03:55:45;101179.03;;;22.39;51.61
47742;BME280;33504;52.066;6.096;2023-09-12T03:58:12;101173.67;;;22.19;51.75
47742;BME280;33504;52.066;6.096;2023-09-12T04:00:39;101166.37;;;22.39;51.85
47742;BME280;33504;52.066;6.096;2023-09-12T04:03:06;101166.19;;;22.34;52.05
47742;BME280;33504;52.066;6.096;2023-09-12T04:05:34;101162.15;;;22.53;52.11
47742;BME280;33504;52.066;6.096;2023-09-12T04:08:01;101161.03;;;22.57;52.20
47742;BME280;33504;52.066;6.096;2023-09-12T04:10:28;101165.68;;;22.64;52.06
47742;BME280;33504;52.066;6.096;2023-09-12T04:12:56;101168.08;;;22.17;52.09
47742;BME280;33504;52.066;6.096;2023-09-12T04:15:22;101162.50;;;22.64;52.06
47742;BME280;33504;52.066;6.096;2023-09-12T04:17:49;101155.47;;;22.39;52.18
47742;BME280;33504;52.066;6.096;2023-09-12T04:20:16;101150.08;;;22.42;52.12
47742;BME280;33504;52.066;6.096;2023-09-12T04:22:43;101149.80;;;22.35;51.95
47742;BME280;33504;52.066;6.096;2023-09-12T04:25:11;101145.90;;;22.35;51.95
47742;BME280;33504;52.066;6.096;2023-09-12T04:27:38;101142.74;;;22.37;51.85
47742;BME280;33504;52.066;6.096;2023-09-12T04:30:06;101138.23;;;22.18;51.69
47742;BME280;33504;52.066;6.096;2023-09-12T04:32:33;101138.15;;;22.41;51.67
47742;BME280;33504;52.066;6.096;2023-09-12T04:35:00;101137.47;;;22.66;51.58
47742;BME280;33504;52.066;6.096;2023-09-12T04:37:27;101139.26;;;22.65;51.38
47742;BME280;33504;52.066;6.096;2023-09-12T04:39:54;101135.11;;;22.36;51.25
47742;BME280;33504;52.066;6.096;2023-09-12T04:42:21;101135.18;;;22.09;51.24
47742;BME280;33504;52.066;6.096;2023-09-12T04:44:49;101137.77;;;22.04;51.11
47742;BME280;33504;52.066;6.096;2023-09-12T04:47:16;101142.87;;;22.22;51.21
47742;BME280;33504;52.066;6.096;2023-09-12T04:49:44;101146.19;;;22.19;51.08
47742;BME280;33504;52.066;6.096;2023-09-12T04:52:11;101141.33;;;22.17;51.10
47742;BME280;33504;52.066;6.096;2023-09-12T04:54:38;101142.89;;;22.14;51.22
47742;BME280;33504;52.066;6.096;2023-09-12T04:57:07;101143.67;;;22.13;50.95
47742;BME280;33504;52.066;6.096;2023-09-12T04:59:34;101147.74;;;22.08;50.85
47742;BME280;33504;52.066;6.096;2023-09-12T05:02:01;101149.20;;;22.06;50.94
47742;BME280;33504;52.066;6.096;2023-09-12T05:04:28;101160.61;;;22.05;51.26
47742;BME280;33504;52.066;6.096;2023-09-12T05:06:55;101168.93;;;21.98;51.33
47742;BME280;33504;52.066;6.096;2023-09-12T05:09:23;101174.87;;;22.09;51.51
47742;BME280;33504;52.066;6.096;2023-09-12T05:11:50;101171.17;;;22.13;51.51
47742;BME280;33504;52.066;6.096;2023-09-12T05:14:17;101169.58;;;21.84;51.55
47742;BME280;33504;52.066;6.096;2023-09-12T05:16:45;101175.20;;;22.11;51.57
47742;BME280;33504;52.066;6.096;2023-09-12T05:19:11;101173.68;;;21.82;51.62
47742;BME280;33504;52.066;6.096;2023-09-12T05:21:39;101170.48;;;22.09;51.85
47742;BME280;33504;52.066;6.096;2023-09-12T05:24:06;101169.82;;;21.89;51.72
47742;BME280;33504;52.066;6.096;2023-09-12T05:26:33;101171.03;;;21.93;51.59
47742;BME280;33504;52.066;6.096;2023-09-12T05:29:00;101174.17;;;22.23;51.53
47742;BME280;33504;52.066;6.096;2023-09-12T05:31:27;101176.85;;;21.96;51.41
47742;BME280;33504;52.066;6.096;2023-09-12T05:33:54;101178.86;;;22.26;51.38
47742;BME280;33504;52.066;6.096;2023-09-12T05:36:21;101185.15;;;22.41;51.48
47742;BME280;33504;52.066;6.096;2023-09-12T05:38:48;101198.94;;;22.20;51.51
47742;BME280;33504;52.066;6.096;2023-09-12T05:41:15;101202.73;;;21.91;51.69
47742;BME280;33504;52.066;6.096;2023-09-12T05:43:42;101198.84;;;22.17;51.65
47742;BME280;33504;52.066;6.096;2023-09-12T05:46:09;101196.19;;;22.44;51.65
47742;BME280;33504;52.066;6.096;2023-09-12T05:48:36;101195.38;;;21.98;51.62
47742;BME280;33504;52.066;6.096;2023-09-12T05:51:03;101199.27;;;22.27;51.60
47742;BME280;33504;52.066;6.096;2023-09-12T05:53:31;101198.19;;;22.03;51.59
47742;BME280;33504;52.066;6.096;2023-09-12T05:55:57;101193.76;;;22.05;51.63
47742;BME280;33504;52.066;6.096;2023-09-12T05:58:24;101194.21;;;22.39;51.52
47742;BME280;33504;52.066;6.096;2023-09-12T06:00:51;101193.06;;;22.41;51.51
47742;BME280;33504;52.066;6.096;2023-09-12T06:03:18;101193.00;;;22.42;51.40
47742;BME280;33504;52.066;6.096;2023-09-12T06:05:45;101192.08;;;21.94;51.49
47742;BME280;33504;52.066;6.096;2023-09-12T06:08:12;101189.06;;;22.16;51.59
47742;BME280;33504;52.066;6.096;2023-09-12T06:10:39;101185.37;;;22.41;51.56
47742;BME280;33504;52.066;6.096;2023-09-12T06:13:06;101189.13;;;22.16;51.62
47742;BME280;33504;52.066;6.096;2023-09-12T06:15:33;101195.60;;;22.15;51.77
47742;BME280;33504;52.066;6.096;2023-09-12T06:18:00;101207.66;;;22.16;51.77
47742;BME280;33504;52.066;6.096;2023-09-12T06:20:27;101221.76;;;22.07;52.28
47742;BME280;33504;52.066;6.096;2023-09-12T06:22:54;101230.27;;;21.98;52.50
47742;BME280;33504;52.066;6.096;2023-09-12T06:25:21;101226.97;;;21.61;52.77
47742;BME280;33504;52.066;6.096;2023-09-12T06:27:48;101222.24;;;22.12;52.27
47742;BME280;33504;52.066;6.096;2023-09-12T06:30:15;101228.07;;;22.25;52.21
47742;BME280;33504;52.066;6.096;2023-09-12T06:32:42;101228.49;;;22.56;52.20
47742;BME280;33504;52.066;6.096;2023-09-12T06:35:09;101231.32;;;22.35;52.21
47742;BME280;33504;52.066;6.096;2023-09-12T06:37:37;101230.88;;;22.67;52.29
47742;BME280;33504;52.066;6.096;2023-09-12T06:40:05;101232.05;;;22.34;52.57
47742;BME280;33504;52.066;6.096;2023-09-12T06:42:32;101233.54;;;22.39;52.52
47742;BME280;33504;52.066;6.096;2023-09-12T06:44:59;101234.49;;;22.42;52.54
47742;BME280;33504;52.066;6.096;2023-09-12T06:47:26;101232.08;;;22.44;52.70
47742;BME280;33504;52.066;6.096;2023-09-12T06:49:53;101235.03;;;22.35;52.75
47742;BME280;33504;52.066;6.096;2023-09-12T06:52:20;101234.08;;;22.45;52.78
47742;BME280;33504;52.066;6.096;2023-09-12T06:54:48;101233.69;;;22.49;52.84
47742;BME280;33504;52.066;6.096;2023-09-12T06:57:15;101234.28;;;22.59;52.78
47742;BME280;33504;52.066;6.096;2023-09-12T06:59:42;101238.73;;;22.19;53.09
47742;BME280;33504;52.066;6.096;2023-09-12T07:02:09;101234.31;;;22.58;52.91
47742;BME280;33504;52.066;6.096;2023-09-12T07:04:36;101233.55;;;22.50;52.92
47742;BME280;33504;52.066;6.096;2023-09-12T07:07:03;101236.90;;;22.65;52.75
47742;BME280;33504;52.066;6.096;2023-09-12T07:09:30;101238.03;;;22.76;52.69
47742;BME280;33504;52.066;6.096;2023-09-12T07:11:57;101242.57;;;22.47;53.06
47742;BME280;33504;52.066;6.096;2023-09-12T07:14:25;101240.51;;;22.80;52.80
47742;BME280;33504;52.066;6.096;2023-09-12T07:16:51;101237.46;;;22.64;52.77
47742;BME280;33504;52.066;6.096;2023-09-12T07:19:19;101237.11;;;23.00;52.60
47742;BME280;33504;52.066;6.096;2023-09-12T07:21:46;101232.37;;;22.69;52.54
47742;BME280;33504;52.066;6.096;2023-09-12T07:24:12;101233.76;;;23.01;52.44
47742;BME280;33504;52.066;6.096;2023-09-12T07:26:39;101232.30;;;23.29;52.28
47742;BME280;33504;52.066;6.096;2023-09-12T07:29:06;101234.96;;;23.38;52.20
47742;BME280;33504;52.066;6.096;2023-09-12T07:31:33;101238.15;;;23.04;52.16
47742;BME280;33504;52.066;6.096;2023-09-12T07:34:00;101241.63;;;23.11;52.28
47742;BME280;33504;52.066;6.096;2023-09-12T07:36:28;101239.82;;;23.16;52.06
47742;BME280;33504;52.066;6.096;2023-09-12T07:38:55;101239.61;;;23.21;52.03
47742;BME280;33504;52.066;6.096;2023-09-12T07:41:22;101237.15;;;23.29;52.06
47742;BME280;33504;52.066;6.096;2023-09-12T07:43:50;101239.75;;;23.35;52.09
47742;BME280;33504;52.066;6.096;2023-09-12T07:46:16;101239.90;;;23.60;51.71
47742;BME280;33504;52.066;6.096;2023-09-12T07:48:44;101237.51;;;23.43;51.84
47742;BME280;33504;52.066;6.096;2023-09-12T07:51:12;101231.62;;;23.43;51.68
47742;BME280;33504;52.066;6.096;2023-09-12T07:53:39;101228.58;;;23.43;51.46
47742;BME280;33504;52.066;6.096;2023-09-12T07:56:09;101224.21;;;23.50;51.57
47742;BME280;33504;52.066;6.096;2023-09-12T07:58:36;101221.62;;;23.53;51.66
47742;BME280;33504;52.066;6.096;2023-09-12T08:01:05;101224.92;;;23.60;51.50
47742;BME280;33504;52.066;6.096;2023-09-12T08:03:33;101227.48;;;23.63;51.52
47742;BME280;33504;52.066;6.096;2023-09-12T08:06:00;101231.31;;;23.59;50.93
47742;BME280;33504;52.066;6.096;2023-09-12T08:08:27;101229.87;;;23.55;50.96
47742;BME280;33504;52.066;6.096;2023-09-12T08:10:54;101232.05;;;23.57;51.00
47742;BME280;33504;52.066;6.096;2023-09-12T08:13:21;101226.72;;;23.52;51.26
47742;BME280;33504;52.066;6.096;2023-09-12T08:15:49;101223.35;;;23.57;51.31
47742;BME280;33504;52.066;6.096;2023-09-12T08:18:16;101222.74;;;23.68;51.64
47742;BME280;33504;52.066;6.096;2023-09-12T08:20:43;101224.33;;;23.81;51.79
47742;BME280;33504;52.066;6.096;2023-09-12T08:23:10;101223.93;;;23.93;51.55
47742;BME280;33504;52.066;6.096;2023-09-12T08:25:37;101224.77;;;24.05;51.29
47742;BME280;33504;52.066;6.096;2023-09-12T08:28:06;101227.76;;;24.11;51.16
47742;BME280;33504;52.066;6.096;2023-09-12T08:30:33;101230.89;;;23.97;51.03
47742;BME280;33504;52.066;6.096;2023-09-12T08:32:59;101230.61;;;24.12;50.89
47742;BME280;33504;52.066;6.096;2023-09-12T08:35:27;101228.84;;;24.85;50.83
47742;BME280;33504;52.066;6.096;2023-09-12T08:37:54;101229.43;;;24.55;50.64
47742;BME280;33504;52.066;6.096;2023-09-12T08:40:21;101229.90;;;24.82;49.66
47742;BME280;33504;52.066;6.096;2023-09-12T08:42:48;101232.63;;;25.27;49.45
47742;BME280;33504;52.066;6.096;2023-09-12T08:45:19;101232.83;;;25.68;48.77
47742;BME280;33504;52.066;6.096;2023-09-12T08:47:49;101234.58;;;25.68;48.11
47742;BME280;33504;52.066;6.096;2023-09-12T08:50:17;101240.06;;;26.04;47.46
47742;BME280;33504;52.066;6.096;2023-09-12T08:52:45;101245.67;;;26.30;46.20
47742;BME280;33504;52.066;6.096;2023-09-12T08:55:12;101249.95;;;26.64;45.97
47742;BME280;33504;52.066;6.096;2023-09-12T08:57:41;101256.20;;;26.55;45.72
47742;BME280;33504;52.066;6.096;2023-09-12T09:00:09;101258.66;;;26.77;45.52
47742;BME280;33504;52.066;6.096;2023-09-12T09:02:37;101255.67;;;26.20;45.22
47742;BME280;33504;52.066;6.096;2023-09-12T09:05:07;101256.28;;;26.90;45.42
47742;BME280;33504;52.066;6.096;2023-09-12T09:07:34;101255.25;;;26.57;45.47
47742;BME280;33504;52.066;6.096;2023-09-12T09:10:04;101256.18;;;26.44;45.70
47742;BME280;33504;52.066;6.096;2023-09-12T09:12:31;101257.44;;;26.12;45.33
47742;BME280;33504;52.066;6.096;2023-09-12T09:14:58;101261.51;;;26.85;45.53
47742;BME280;33504;52.066;6.096;2023-09-12T09:17:26;101258.92;;;27.02;44.66
47742;BME280;33504;52.066;6.096;2023-09-12T09:19:55;101258.73;;;27.43;44.51
47742;BME280;33504;52.066;6.096;2023-09-12T09:22:22;101254.71;;;27.97;42.34
47742;BME280;33504;52.066;6.096;2023-09-12T09:24:49;101250.41;;;28.03;41.45
47742;BME280;33504;52.066;6.096;2023-09-12T09:27:32;101252.64;;;28.09;42.27
47742;BME280;33504;52.066;6.096;2023-09-12T09:29:59;101248.96;;;28.18;41.06
47742;BME280;33504;52.066;6.096;2023-09-12T09:32:26;101242.67;;;28.23;40.58
47742;BME280;33504;52.066;6.096;2023-09-12T09:34:53;101248.78;;;28.44;39.21
47742;BME280;33504;52.066;6.096;2023-09-12T09:37:20;101256.64;;;28.75;39.61
47742;BME280;33504;52.066;6.096;2023-09-12T09:39:48;101257.26;;;28.46;39.37
47742;BME280;33504;52.066;6.096;2023-09-12T09:42:15;101261.50;;;29.12;38.91
47742;BME280;33504;52.066;6.096;2023-09-12T09:44:43;101264.58;;;29.39;38.89
47742;BME280;33504;52.066;6.096;2023-09-12T09:47:10;101269.22;;;28.97;38.88
47742;BME280;33504;52.066;6.096;2023-09-12T09:49:37;101271.84;;;29.02;38.81
47742;BME280;33504;52.066;6.096;2023-09-12T09:52:05;101271.59;;;28.54;39.26
47742;BME280;33504;52.066;6.096;2023-09-12T09:54:32;101274.36;;;28.17;38.97
47742;BME280;33504;52.066;6.096;2023-09-12T09:56:59;101275.88;;;28.00;39.22
47742;BME280;33504;52.066;6.096;2023-09-12T09:59:27;101276.55;;;27.62;39.42
47742;BME280;33504;52.066;6.096;2023-09-12T10:01:57;101277.57;;;27.24;40.67
47742;BME280;33504;52.066;6.096;2023-09-12T10:04:25;101279.54;;;27.71;40.24
47742;BME280;33504;52.066;6.096;2023-09-12T10:06:55;101280.61;;;27.66;40.58
47742;BME280;33504;52.066;6.096;2023-09-12T10:09:26;101284.18;;;27.36;40.73
47742;BME280;33504;52.066;6.096;2023-09-12T10:11:55;101290.63;;;26.80;42.38
47742;BME280;33504;52.066;6.096;2023-09-12T10:14:23;101290.42;;;27.05;42.34
47742;BME280;33504;52.066;6.096;2023-09-12T10:16:57;101291.08;;;27.08;41.90
47742;BME280;33504;52.066;6.096;2023-09-12T10:19:34;101287.79;;;27.36;41.40
47742;BME280;33504;52.066;6.096;2023-09-12T10:22:07;101287.14;;;27.38;41.44
47742;BME280;33504;52.066;6.096;2023-09-12T10:24:36;101292.98;;;27.30;41.43
47742;BME280;33504;52.066;6.096;2023-09-12T10:27:05;101293.89;;;27.70;40.17
47742;BME280;33504;52.066;6.096;2023-09-12T10:29:32;101288.71;;;27.73;39.56
47742;BME280;33504;52.066;6.096;2023-09-12T10:32:00;101278.25;;;28.39;39.77
47742;BME280;33504;52.066;6.096;2023-09-12T10:34:30;101271.15;;;28.58;39.31
47742;BME280;33504;52.066;6.096;2023-09-12T10:36:58;101269.93;;;28.90;36.69
47742;BME280;33504;52.066;6.096;2023-09-12T10:39:27;101267.37;;;28.75;37.28
47742;BME280;33504;52.066;6.096;2023-09-12T10:41:55;101265.44;;;29.00;37.29
47742;BME280;33504;52.066;6.096;2023-09-12T10:44:24;101261.10;;;28.72;35.88
47742;BME280;33504;52.066;6.096;2023-09-12T10:46:53;101259.55;;;27.96;37.91
47742;BME280;33504;52.066;6.096;2023-09-12T10:49:21;101257.38;;;28.35;37.93
47742;BME280;33504;52.066;6.096;2023-09-12T10:51:48;101257.56;;;28.28;36.82
47742;BME280;33504;52.066;6.096;2023-09-12T10:54:23;101255.32;;;28.64;38.76
47742;BME280;33504;52.066;6.096;2023-09-12T10:57:02;101255.19;;;28.54;38.90
47742;BME280;33504;52.066;6.096;2023-09-12T10:59:30;101253.69;;;28.80;38.63
47742;BME280;33504;52.066;6.096;2023-09-12T11:02:27;101250.97;;;28.34;37.33
47742;BME280;33504;52.066;6.096;2023-09-12T11:04:54;101249.77;;;28.71;36.78
47742;BME280;33504;52.066;6.096;2023-09-12T11:07:56;101252.17;;;29.22;38.75
47742;BME280;33504;52.066;6.096;2023-09-12T11:10:24;101253.86;;;28.23;39.46
47742;BME280;33504;52.066;6.096;2023-09-12T11:12:52;101256.26;;;28.52;38.59
47742;BME280;33504;52.066;6.096;2023-09-12T11:15:21;101256.77;;;28.20;39.31
47742;BME280;33504;52.066;6.096;2023-09-12T11:17:59;101258.77;;;28.80;37.62
47742;BME280;33504;52.066;6.096;2023-09-12T11:20:49;101262.13;;;28.87;38.83
47742;BME280;33504;52.066;6.096;2023-09-12T11:23:16;101256.38;;;29.42;38.41
47742;BME280;33504;52.066;6.096;2023-09-12T11:25:43;101254.31;;;29.63;36.99
47742;BME280;33504;52.066;6.096;2023-09-12T11:28:11;101247.87;;;29.38;35.10
47742;BME280;33504;52.066;6.096;2023-09-12T11:30:55;101248.52;;;29.63;34.88
47742;BME280;33504;52.066;6.096;2023-09-12T11:33:24;101250.43;;;29.98;34.54
47742;BME280;33504;52.066;6.096;2023-09-12T11:35:52;101245.91;;;29.74;36.58
47742;BME280;33504;52.066;6.096;2023-09-12T11:38:26;101244.09;;;29.81;34.69
47742;BME280;33504;52.066;6.096;2023-09-12T11:40:54;101242.98;;;29.35;37.04
47742;BME280;33504;52.066;6.096;2023-09-12T11:43:22;101236.84;;;29.17;36.36
47742;BME280;33504;52.066;6.096;2023-09-12T11:45:50;101238.07;;;29.18;36.81
47742;BME280;33504;52.066;6.096;2023-09-12T11:48:18;101235.26;;;28.74;37.04
47742;BME280;33504;52.066;6.096;2023-09-12T11:50:50;101233.30;;;28.87;38.03
47742;BME280;33504;52.066;6.096;2023-09-12T11:53:20;101233.05;;;28.70;39.08
47742;BME280;33504;52.066;6.096;2023-09-12T11:55:48;101234.25;;;28.98;38.96
47742;BME280;33504;52.066;6.096;2023-09-12T11:58:17;101233.86;;;28.98;38.66
47742;BME280;33504;52.066;6.096;2023-09-12T12:00:45;101232.87;;;28.69;37.78
47742;BME280;33504;52.066;6.096;2023-09-12T12:03:12;101237.43;;;28.36;38.38
47742;BME280;33504;52.066;6.096;2023-09-12T12:05:39;101237.31;;;28.76;38.88
47742;BME280;33504;52.066;6.096;2023-09-12T12:08:07;101235.51;;;28.26;37.48
47742;BME280;33504;52.066;6.096;2023-09-12T12:10:34;101233.96;;;28.09;37.60
47742;BME280;33504;52.066;6.096;2023-09-12T12:13:01;101232.06;;;27.78;37.68
47742;BME280;33504;52.066;6.096;2023-09-12T12:15:28;101224.79;;;27.98;38.61
47742;BME280;33504;52.066;6.096;2023-09-12T12:17:56;101223.79;;;27.99;38.57
47742;BME280;33504;52.066;6.096;2023-09-12T12:20:23;101220.77;;;27.99;39.32
47742;BME280;33504;52.066;6.096;2023-09-12T12:22:50;101222.35;;;28.18;39.76
47742;BME280;33504;52.066;6.096;2023-09-12T12:25:18;101220.47;;;27.96;40.66
47742;BME280;33504;52.066;6.096;2023-09-12T12:27:45;101221.73;;;27.47;40.22
47742;BME280;33504;52.066;6.096;2023-09-12T12:30:13;101219.87;;;28.17;39.72
47742;BME280;33504;52.066;6.096;2023-09-12T12:32:40;101214.43;;;27.73;39.24
47742;BME280;33504;52.066;6.096;2023-09-12T12:35:08;101216.19;;;28.12;38.50
47742;BME280;33504;52.066;6.096;2023-09-12T12:37:36;101217.03;;;27.67;39.05
47742;BME280;33504;52.066;6.096;2023-09-12T12:40:05;101213.78;;;27.71;38.91
47742;BME280;33504;52.066;6.096;2023-09-12T12:42:34;101212.34;;;27.96;38.95
47742;BME280;33504;52.066;6.096;2023-09-12T12:45:02;101210.59;;;27.75;40.13
47742;BME280;33504;52.066;6.096;2023-09-12T12:47:29;101208.14;;;27.89;39.64
47742;BME280;33504;52.066;6.096;2023-09-12T12:49:56;101209.22;;;27.52;37.58
47742;BME280;33504;52.066;6.096;2023-09-12T12:52:24;101203.40;;;27.84;36.89
47742;BME280;33504;52.066;6.096;2023-09-12T12:54:51;101201.50;;;27.91;36.76